createdAt,value
2023-01-21T00:01:17.930Z,82.85
2023-01-21T00:04:01.746Z,83.40
2023-01-21T00:06:45.840Z,84.11
2023-01-21T00:09:29.582Z,84.11
2023-01-21T00:12:13.349Z,83.37
2023-01-21T00:14:58.538Z,82.60
2023-01-21T00:17:44.015Z,82.56
2023-01-21T00:20:27.774Z,83.68
2023-01-21T00:23:11.746Z,84.10
2023-01-21T00:25:59.209Z,84.08
2023-01-21T00:28:44.643Z,84.07
2023-01-21T00:31:30.847Z,84.20
2023-01-21T00:34:15.101Z,83.74
2023-01-21T00:36:58.947Z,82.44
2023-01-21T00:39:43.259Z,84.39
2023-01-21T00:42:28.027Z,83.88
2023-01-21T00:45:12.581Z,83.04
2023-01-21T00:47:57.810Z,82.48
2023-01-21T00:50:42.449Z,82.54
2023-01-21T00:53:26.525Z,83.46
2023-01-21T00:56:12.902Z,84.01
2023-01-21T00:58:57.164Z,82.52
2023-01-21T01:01:41.286Z,82.72
2023-01-21T01:04:26.733Z,81.72
2023-01-21T01:07:10.536Z,81.29
2023-01-21T01:09:54.592Z,82.44
2023-01-21T01:12:38.718Z,82.10
2023-01-21T01:15:22.612Z,83.22
2023-01-21T01:18:06.566Z,81.97
2023-01-21T01:20:52.243Z,82.75
2023-01-21T01:23:36.125Z,82.87
2023-01-21T01:26:21.193Z,82.04
2023-01-21T01:29:05.853Z,83.39
2023-01-21T01:31:49.813Z,81.96
2023-01-21T01:34:33.744Z,84.02
2023-01-21T01:37:19.102Z,84.01
2023-01-21T01:40:03.069Z,83.61
2023-01-21T01:42:47.133Z,82.82
2023-01-21T01:45:31.002Z,82.73
2023-01-21T01:48:19.282Z,82.89
2023-01-21T01:51:07.535Z,81.96
2023-01-21T01:53:53.609Z,83.46
2023-01-21T01:56:43.372Z,83.50
2023-01-21T01:59:27.899Z,83.50
2023-01-21T02:02:15.688Z,83.33
2023-01-21T02:05:03.233Z,82.84
2023-01-21T02:07:47.615Z,83.28
2023-01-21T02:10:34.617Z,81.78
2023-01-21T02:13:19.381Z,82.83
2023-01-21T02:16:16.374Z,83.49
2023-01-21T02:19:19.003Z,82.80
2023-01-21T02:22:11.667Z,82.63
2023-01-21T02:25:30.749Z,82.88
2023-01-21T02:28:49.288Z,82.48
2023-01-21T02:32:10.432Z,81.75
2023-01-21T02:35:03.013Z,82.12
2023-01-21T02:37:53.084Z,82.67
2023-01-21T02:40:44.977Z,83.04
2023-01-21T02:43:33.775Z,82.79
2023-01-21T02:46:23.142Z,82.50
2023-01-21T02:49:14.461Z,82.30
2023-01-21T02:51:59.947Z,81.90
2023-01-21T02:54:55.371Z,82.26
2023-01-21T02:57:46.493Z,81.83
2023-01-21T03:00:41.869Z,82.05
2023-01-21T03:03:58.336Z,81.81
2023-01-21T03:06:50.398Z,81.95
2023-01-21T03:09:37.563Z,82.22
2023-01-21T03:12:32.531Z,81.90
2023-01-21T03:15:41.416Z,81.81
2023-01-21T03:18:31.003Z,81.97
2023-01-21T03:21:19.130Z,81.51
2023-01-21T03:24:03.806Z,81.13
2023-01-21T03:26:53.879Z,81.65
2023-01-21T03:29:42.324Z,82.44
2023-01-21T03:32:29.294Z,82.36
2023-01-21T03:35:17.579Z,82.71
2023-01-21T03:38:07.985Z,82.44
2023-01-21T03:40:56.431Z,83.11
2023-01-21T03:43:41.817Z,82.74
2023-01-21T03:46:34.470Z,84.08
2023-01-21T03:49:23.955Z,84.74
2023-01-21T03:52:10.140Z,84.24
2023-01-21T03:54:55.125Z,84.12
2023-01-21T03:57:39.212Z,84.95
2023-01-21T04:00:25.205Z,85.22
2023-01-21T04:03:09.127Z,83.48
2023-01-21T04:05:53.201Z,84.71
2023-01-21T04:08:37.156Z,85.41
2023-01-21T04:11:21.068Z,85.43
2023-01-21T04:14:05.085Z,84.93
2023-01-21T04:16:50.335Z,85.30
2023-01-21T04:19:34.103Z,85.30
2023-01-21T04:22:18.330Z,85.02
2023-01-21T04:25:02.281Z,85.07
2023-01-21T04:27:47.081Z,85.04
2023-01-21T04:30:30.986Z,85.94
2023-01-21T04:33:16.848Z,87.27
2023-01-21T04:36:01.580Z,87.19
2023-01-21T04:38:45.476Z,85.96
2023-01-21T04:41:29.413Z,85.84
2023-01-21T04:44:13.236Z,86.32
2023-01-21T04:46:56.942Z,86.27
2023-01-21T04:49:42.699Z,85.59
2023-01-21T04:52:26.792Z,85.93
2023-01-21T04:55:11.316Z,86.32
2023-01-21T04:57:56.647Z,86.15
2023-01-21T05:00:40.705Z,85.17
2023-01-21T05:03:24.574Z,84.77
2023-01-21T05:06:10.059Z,84.44
2023-01-21T05:08:53.917Z,84.49
2023-01-21T05:11:37.837Z,84.43
2023-01-21T05:14:21.881Z,83.58
2023-01-21T05:17:06.114Z,83.77
2023-01-21T05:19:51.279Z,84.17
2023-01-21T05:22:36.603Z,84.33
2023-01-21T05:25:20.741Z,83.87
2023-01-21T05:28:04.698Z,83.52
2023-01-21T05:30:48.707Z,83.60
2023-01-21T05:33:33.783Z,84.05
2023-01-21T05:36:17.686Z,84.59
2023-01-21T05:39:03.115Z,86.22
2023-01-21T05:41:46.997Z,85.51
2023-01-21T05:44:30.932Z,84.88
2023-01-21T05:47:15.248Z,85.25
2023-01-21T05:49:59.098Z,84.94
2023-01-21T05:52:43.168Z,85.85
2023-01-21T05:55:28.464Z,85.91
2023-01-21T05:58:12.200Z,85.96
2023-01-21T06:00:58.262Z,86.92
2023-01-21T06:03:42.119Z,86.50
2023-01-21T06:06:26.040Z,86.17
2023-01-21T06:09:09.902Z,85.94
2023-01-21T06:11:55.059Z,85.80
2023-01-21T06:14:38.887Z,86.09
2023-01-21T06:17:22.663Z,86.16
2023-01-21T06:20:07.593Z,87.83
2023-01-21T06:22:51.320Z,86.68
2023-01-21T06:25:35.508Z,87.48
2023-01-21T06:28:20.666Z,86.31
2023-01-21T06:31:04.719Z,86.76
2023-01-21T06:33:48.632Z,87.03
2023-01-21T06:36:32.464Z,86.84
2023-01-21T06:39:16.521Z,87.05
2023-01-21T06:42:00.371Z,86.41
2023-01-21T06:44:45.525Z,87.41
2023-01-21T06:47:29.416Z,86.64
2023-01-21T06:50:15.963Z,86.56
2023-01-21T06:53:00.162Z,86.48
2023-01-21T06:55:43.959Z,86.00
2023-01-21T06:58:27.711Z,85.62
2023-01-21T07:01:12.922Z,85.70
2023-01-21T07:03:56.713Z,85.02
2023-01-21T07:06:40.682Z,85.23
2023-01-21T07:09:24.603Z,84.87
2023-01-21T07:12:08.571Z,83.93
2023-01-21T07:14:52.334Z,84.29
2023-01-21T07:17:37.523Z,84.48
2023-01-21T07:20:22.743Z,84.88
2023-01-21T07:23:06.550Z,84.24
2023-01-21T07:25:50.603Z,83.50
2023-01-21T07:28:34.873Z,83.38
2023-01-21T07:31:18.784Z,82.72
2023-01-21T07:34:04.627Z,82.48
2023-01-21T07:36:48.594Z,81.16
2023-01-21T07:39:32.376Z,80.79
2023-01-21T07:42:16.164Z,80.02
2023-01-21T07:45:02.843Z,79.58
2023-01-21T07:47:47.499Z,78.85
2023-01-21T07:50:32.875Z,79.38
2023-01-21T07:53:16.696Z,78.36
2023-01-21T07:56:05.002Z,77.84
2023-01-21T07:58:48.874Z,77.15
2023-01-21T08:01:32.728Z,77.98
2023-01-21T08:04:16.582Z,76.50
2023-01-21T08:07:06.981Z,75.16
2023-01-21T08:09:50.861Z,74.19
2023-01-21T08:12:35.269Z,75.31
2023-01-21T08:15:19.439Z,75.61
2023-01-21T08:18:03.587Z,72.57
2023-01-21T08:20:47.437Z,70.93
2023-01-21T08:23:32.687Z,70.18
2023-01-21T08:26:16.521Z,69.76
2023-01-21T08:29:01.031Z,69.88
2023-01-21T08:31:44.833Z,68.45
2023-01-21T08:34:28.824Z,69.98
2023-01-21T08:37:12.620Z,68.12
2023-01-21T08:39:57.757Z,67.89
2023-01-21T08:42:41.599Z,67.27
2023-01-21T08:45:25.428Z,65.46
2023-01-21T08:48:09.354Z,65.53
2023-01-21T08:50:53.150Z,65.60
2023-01-21T08:53:37.266Z,65.11
2023-01-21T08:56:22.408Z,64.46
2023-01-21T08:59:07.366Z,64.83
2023-01-21T09:01:51.236Z,63.84
2023-01-21T09:04:35.375Z,66.74
2023-01-21T09:07:19.218Z,63.73
2023-01-21T09:10:03.215Z,62.17
2023-01-21T09:12:48.455Z,62.81
2023-01-21T09:15:32.301Z,63.37
2023-01-21T09:18:16.265Z,63.15
2023-01-21T09:21:03.826Z,63.80
2023-01-21T09:23:47.752Z,64.20
2023-01-21T09:26:31.661Z,63.70
2023-01-21T09:29:16.845Z,63.42
2023-01-21T09:32:00.772Z,63.74
2023-01-21T09:34:44.675Z,64.52
2023-01-21T09:40:18.222Z,65.70
2023-01-21T09:43:11.586Z,66.46
2023-01-21T09:46:02.988Z,66.98
2023-01-21T09:48:50.502Z,69.29
2023-01-21T09:51:52.716Z,69.30
2023-01-21T09:54:39.746Z,69.14
2023-01-21T09:57:54.752Z,71.49
2023-01-21T10:00:45.690Z,70.15
2023-01-21T10:03:36.532Z,69.92
2023-01-21T10:06:29.302Z,69.13
2023-01-21T10:09:36.757Z,68.03
2023-01-21T10:12:32.599Z,68.59
2023-01-21T10:15:45.363Z,68.16
2023-01-21T10:18:33.617Z,68.22
2023-01-21T10:21:25.456Z,67.12
2023-01-21T10:24:15.680Z,69.75
2023-01-21T10:27:00.795Z,69.96
2023-01-21T10:29:44.766Z,69.22
2023-01-21T10:32:29.578Z,67.08
2023-01-21T10:35:18.973Z,66.52
2023-01-21T10:38:11.104Z,65.18
2023-01-21T10:41:03.330Z,64.74
2023-01-21T10:43:54.041Z,63.68
2023-01-21T10:46:46.609Z,62.73
2023-01-21T10:49:45.140Z,60.92
2023-01-21T10:52:38.994Z,64.72
2023-01-21T10:55:33.378Z,65.61
2023-01-21T10:58:25.653Z,61.81
2023-01-21T11:01:17.017Z,60.81
2023-01-21T11:04:05.884Z,59.94
2023-01-21T11:06:58.155Z,58.65
2023-01-21T11:09:48.637Z,60.89
2023-01-21T11:12:32.982Z,61.80
2023-01-21T11:15:19.105Z,63.54
2023-01-21T11:18:30.676Z,62.35
2023-01-21T11:21:20.012Z,62.17
2023-01-21T11:24:05.958Z,63.62
2023-01-21T11:26:53.589Z,64.33
2023-01-21T11:29:42.112Z,67.19
2023-01-21T11:32:28.463Z,63.34
2023-01-21T11:35:21.594Z,61.39
2023-01-21T11:38:06.193Z,61.19
2023-01-21T11:41:01.219Z,60.50
2023-01-21T11:43:48.714Z,61.94
2023-01-21T11:46:37.130Z,63.70
2023-01-21T11:49:26.709Z,62.61
2023-01-21T11:52:19.614Z,65.63
2023-01-21T11:55:04.929Z,64.08
2023-01-21T11:57:54.066Z,65.67
2023-01-21T12:00:39.606Z,65.13
2023-01-21T12:03:27.675Z,65.71
2023-01-21T12:06:18.964Z,69.72
2023-01-21T12:09:06.346Z,71.05
2023-01-21T12:12:12.628Z,70.51
2023-01-21T12:14:59.640Z,71.81
2023-01-21T12:17:53.443Z,70.92
2023-01-21T12:20:46.439Z,72.47
2023-01-21T12:23:45.804Z,72.75
2023-01-21T12:26:37.630Z,72.46
2023-01-21T12:29:37.530Z,72.71
2023-01-21T12:32:26.535Z,73.02
2023-01-21T12:35:17.765Z,71.48
2023-01-21T12:38:05.967Z,71.28
2023-01-21T12:40:56.588Z,70.85
2023-01-21T12:43:43.848Z,68.43
2023-01-21T12:46:35.178Z,69.25
2023-01-21T12:49:23.620Z,69.20
2023-01-21T12:52:16.811Z,69.27
2023-01-21T12:55:08.863Z,69.26
2023-01-21T12:57:58.801Z,69.18
2023-01-21T13:00:46.491Z,69.81
2023-01-21T13:03:38.697Z,69.41
2023-01-21T13:06:47.124Z,69.35
2023-01-21T13:09:42.523Z,68.69
2023-01-21T13:12:29.761Z,68.75
2023-01-21T13:15:19.386Z,69.96
2023-01-21T13:18:11.774Z,70.34
2023-01-21T13:21:01.843Z,70.40
2023-01-21T13:23:50.407Z,69.76
2023-01-21T13:26:44.182Z,68.84
2023-01-21T13:29:37.752Z,67.93
2023-01-21T13:32:35.860Z,68.65
2023-01-21T13:35:30.165Z,68.11
2023-01-21T13:38:25.557Z,67.95
2023-01-21T13:41:23.412Z,66.59
2023-01-21T13:44:42.091Z,66.42
2023-01-21T13:47:48.524Z,67.23
2023-01-21T13:50:49.385Z,67.26
2023-01-21T13:53:49.024Z,66.27
2023-01-21T13:56:47.811Z,66.06
2023-01-21T13:59:36.429Z,66.40
2023-01-21T14:02:27.505Z,66.75
2023-01-21T14:05:17.984Z,67.51
2023-01-21T14:08:07.296Z,66.90
2023-01-21T14:10:54.872Z,67.63
2023-01-21T14:14:18.206Z,68.60
2023-01-21T14:17:19.341Z,68.35
2023-01-21T14:20:33.525Z,68.16
2023-01-21T14:23:42.970Z,69.61
2023-01-21T14:26:53.159Z,69.72
2023-01-21T14:29:45.113Z,71.31
2023-01-21T14:32:35.674Z,71.19
2023-01-21T14:35:27.598Z,69.99
2023-01-21T14:38:19.818Z,69.91
2023-01-21T14:41:09.475Z,68.33
2023-01-21T14:43:54.242Z,70.36
2023-01-21T14:46:38.097Z,70.71
2023-01-21T14:49:40.944Z,71.36
2023-01-21T14:52:32.263Z,71.82
2023-01-21T14:55:30.192Z,73.15
2023-01-21T14:58:25.903Z,72.82
2023-01-21T15:01:25.455Z,72.75
2023-01-21T15:04:21.892Z,72.04
2023-01-21T15:07:10.604Z,72.98
2023-01-21T15:09:58.047Z,73.60
2023-01-21T15:12:50.469Z,74.23
2023-01-21T15:15:37.116Z,73.90
2023-01-21T15:18:27.156Z,74.64
2023-01-21T15:21:35.795Z,74.61
2023-01-21T15:24:26.126Z,74.50
2023-01-21T15:27:20.111Z,74.29
2023-01-21T15:30:27.651Z,74.38
2023-01-21T15:33:16.538Z,74.78
2023-01-21T15:36:02.640Z,73.87
2023-01-21T15:38:46.751Z,74.28
2023-01-21T15:41:43.466Z,74.71
2023-01-21T15:44:53.107Z,73.96
2023-01-21T15:47:49.823Z,74.41
2023-01-21T15:50:42.200Z,74.04
2023-01-21T15:53:41.163Z,73.71
2023-01-21T15:56:56.355Z,73.15
2023-01-21T16:00:08.825Z,73.16
2023-01-21T16:02:59.121Z,73.11
2023-01-21T16:05:51.462Z,72.80
2023-01-21T16:08:48.540Z,73.49
2023-01-21T16:11:50.667Z,73.09
2023-01-21T16:14:46.619Z,72.29
2023-01-21T16:17:44.368Z,72.23
2023-01-21T16:20:28.242Z,71.90
2023-01-21T16:23:15.996Z,71.58
2023-01-21T16:25:59.959Z,71.58
2023-01-21T16:28:45.782Z,71.12
2023-01-21T16:31:29.613Z,72.44
2023-01-21T16:34:14.916Z,71.79
2023-01-21T16:36:58.986Z,71.78
2023-01-21T16:39:43.984Z,71.62
2023-01-21T16:42:36.234Z,71.36
2023-01-21T16:45:23.400Z,71.26
2023-01-21T16:48:20.540Z,70.88
2023-01-21T16:51:06.564Z,72.69
2023-01-21T16:53:50.836Z,72.97
2023-01-21T16:56:34.628Z,73.31
2023-01-21T16:59:21.991Z,72.86
2023-01-21T17:02:07.120Z,73.57
2023-01-21T17:04:51.279Z,73.95
2023-01-21T17:07:43.577Z,75.24
2023-01-21T17:10:34.258Z,74.87
2023-01-21T17:13:18.190Z,75.39
2023-01-21T17:16:04.321Z,74.97
2023-01-21T17:18:54.443Z,72.55
2023-01-21T17:21:41.393Z,72.78
2023-01-21T17:24:30.273Z,71.07
2023-01-21T17:27:20.349Z,71.11
2023-01-21T17:30:29.318Z,71.43
2023-01-21T17:33:30.536Z,71.33
2023-01-21T17:36:16.521Z,71.53
2023-01-21T17:39:00.488Z,72.09
2023-01-21T17:41:46.807Z,72.25
2023-01-21T17:44:31.624Z,73.81
2023-01-21T17:47:23.476Z,73.66
2023-01-21T17:50:23.355Z,73.17
2023-01-21T17:53:15.562Z,74.60
2023-01-21T17:56:02.886Z,74.64
2023-01-21T17:58:53.318Z,73.98
2023-01-21T18:01:38.673Z,76.56
2023-01-21T18:04:23.676Z,77.10
2023-01-21T18:07:19.661Z,77.38
2023-01-21T18:10:05.822Z,76.61
2023-01-21T18:12:50.827Z,77.70
2023-01-21T18:15:36.580Z,77.60
2023-01-21T18:18:22.972Z,76.00
2023-01-21T18:21:08.428Z,76.71
2023-01-21T18:23:53.000Z,76.61
2023-01-21T18:26:38.996Z,76.06
2023-01-21T18:29:24.146Z,76.04
2023-01-21T18:32:13.577Z,75.79
2023-01-21T18:34:58.138Z,75.42
2023-01-21T18:37:42.750Z,75.55
2023-01-21T18:40:26.727Z,75.91
2023-01-21T18:43:11.226Z,75.12
2023-01-21T18:45:56.290Z,75.96
2023-01-21T18:48:43.225Z,75.61
2023-01-21T18:51:29.001Z,75.34
2023-01-21T18:54:15.470Z,74.58
2023-01-21T18:57:01.351Z,74.98
2023-01-21T18:59:45.597Z,75.23
2023-01-21T19:02:29.704Z,74.72
2023-01-21T19:05:17.342Z,74.11
2023-01-21T19:08:02.500Z,74.45
2023-01-21T19:10:47.055Z,74.14
2023-01-21T19:13:31.264Z,73.71
2023-01-21T19:16:19.424Z,73.71
2023-01-21T19:19:11.855Z,73.50
2023-01-21T19:21:58.466Z,73.36
2023-01-21T19:24:44.000Z,73.98
2023-01-21T19:27:30.701Z,73.51
2023-01-21T19:30:23.570Z,73.65
2023-01-21T19:33:08.432Z,73.77
2023-01-21T19:36:00.212Z,75.39
2023-01-21T19:38:48.722Z,73.35
2023-01-21T19:41:32.948Z,76.09
2023-01-21T19:44:18.066Z,75.58
2023-01-21T19:47:03.960Z,74.33
2023-01-21T19:49:48.761Z,74.83
2023-01-21T19:52:33.703Z,75.09
2023-01-21T19:55:20.849Z,75.34
2023-01-21T19:58:08.736Z,75.61
2023-01-21T20:00:55.171Z,75.87
2023-01-21T20:03:48.079Z,77.25
2023-01-21T20:06:42.985Z,76.61
2023-01-21T20:09:27.936Z,77.02
2023-01-21T20:12:14.328Z,78.07
2023-01-21T20:14:58.791Z,77.22
2023-01-21T20:17:45.294Z,76.90
2023-01-21T20:20:31.524Z,76.57
2023-01-21T20:23:16.908Z,75.96
2023-01-21T20:26:01.628Z,75.96
2023-01-21T20:28:51.602Z,75.45
2023-01-21T20:31:36.108Z,75.58
2023-01-21T20:34:20.229Z,75.15
2023-01-21T20:37:04.538Z,75.40
2023-01-21T20:39:48.637Z,75.14
2023-01-21T20:42:32.743Z,74.93
2023-01-21T20:45:20.364Z,75.32
2023-01-21T20:48:05.521Z,74.84
2023-01-21T20:50:49.860Z,75.78
2023-01-21T20:53:34.328Z,74.67
2023-01-21T20:56:21.454Z,74.72
2023-01-21T20:59:05.504Z,74.67
2023-01-21T21:01:51.945Z,74.71
2023-01-21T21:04:35.920Z,73.23
2023-01-21T21:07:24.101Z,72.52
2023-01-21T21:10:15.563Z,71.97
2023-01-21T21:13:00.105Z,72.69
2023-01-21T21:15:46.669Z,73.29
2023-01-21T21:18:32.110Z,71.70
2023-01-21T21:21:16.073Z,71.03
2023-01-21T21:23:59.866Z,70.86
2023-01-21T21:26:44.629Z,71.57
2023-01-21T21:29:28.553Z,70.92
2023-01-21T21:32:13.709Z,71.06
2023-01-21T21:34:58.908Z,72.13
2023-01-21T21:37:43.659Z,72.74
2023-01-21T21:40:30.284Z,73.18
2023-01-21T21:43:38.960Z,74.21
2023-01-21T21:46:40.529Z,73.23
2023-01-21T21:49:24.389Z,74.04
2023-01-21T21:52:09.763Z,73.83
2023-01-21T21:54:54.943Z,73.63
2023-01-21T21:57:38.916Z,73.68
2023-01-21T22:00:23.199Z,74.08
2023-01-21T22:03:07.749Z,73.61
2023-01-21T22:05:57.935Z,72.72
2023-01-21T22:08:44.352Z,70.58
2023-01-21T22:11:29.521Z,70.69
2023-01-21T22:14:14.054Z,69.66
2023-01-21T22:16:58.070Z,69.69
2023-01-21T22:19:42.105Z,68.88
2023-01-21T22:22:25.978Z,68.85
2023-01-21T22:25:11.951Z,68.52
2023-01-21T22:27:56.088Z,68.12
2023-01-21T22:30:40.220Z,68.51
2023-01-21T22:33:24.245Z,68.30
2023-01-21T22:36:10.665Z,68.31
2023-01-21T22:38:55.386Z,69.42
2023-01-21T22:41:40.847Z,69.69
2023-01-21T22:44:24.975Z,69.89
2023-01-21T22:47:09.034Z,69.03
2023-01-21T22:49:53.056Z,69.81
2023-01-21T22:52:37.351Z,70.46
2023-01-21T22:55:21.327Z,71.42
2023-01-21T22:58:06.793Z,72.37
2023-01-21T23:00:52.158Z,71.52
2023-01-21T23:03:35.930Z,70.11
2023-01-21T23:06:20.058Z,70.52
2023-01-21T23:09:04.167Z,70.21
2023-01-21T23:11:48.512Z,68.78
2023-01-21T23:14:33.648Z,68.67
2023-01-21T23:17:17.860Z,68.18
2023-01-21T23:20:01.510Z,68.19
2023-01-21T23:22:47.391Z,68.43
2023-01-21T23:25:31.204Z,68.38
2023-01-21T23:28:16.241Z,67.95
2023-01-21T23:31:05.156Z,68.54
2023-01-21T23:33:50.855Z,67.72
2023-01-21T23:36:34.759Z,67.75
2023-01-21T23:39:19.101Z,68.91
2023-01-21T23:42:02.934Z,68.52
2023-01-21T23:44:46.840Z,68.56
2023-01-21T23:47:31.919Z,68.43
2023-01-21T23:50:16.494Z,67.96
2023-01-21T23:53:00.589Z,69.12
2023-01-21T23:55:44.464Z,68.69
2023-01-21T23:58:28.214Z,70.61
